Disclaimer

    

CYCD

METAR CYCD 091400Z 00000KT 15SM OVC050 00/00 A2984 RMK SC8 SLP109=

LWIS CYCD 091300Z AUTO 19002KT M00/M00 A2985=

LWIS CYCD 091200Z AUTO 33002KT M00/M00 A2985=

TAF CYCD 082340Z 0900/0905 VRB03KT P6SM FEW040 FEW080RMK NXT FCST BY 091600Z

CYVR

METAR CYVR 091400Z 09005KT 12SM -RA SCT024 OVC046 03/02 A2985 RMK SC4SC4 SLP111=

METAR CYVR 091300Z CCA 09006KT 12SM -RA FEW029 BKN052 OVC060 02/01 A2985 RMK SC2SC4SC2 SLP112=

METAR CYVR 091300Z 09006KT 12SM -RA SCT029 BKN052 OVC060 02/01 A2985 RMK SC2SC4SC2 SLP112=

METAR CYVR 091200Z 11008KT 15SM FEW039 BKN061 OVC072 02/01 A2986 RMK SC2SC3AC3 SLP115=

TAF CYVR 091140Z 0912/1018 09005KT P6SM FEW030 SCT080 TEMPO0912/0913 BKN080FM091300 08008KT P6SM SCT020 BKN050 TEMPO 0913/0915 P6SM -SHRABKN020FM091500 09008KT P6SM SCT012 BKN030 TEMPO 0915/0922 5SM -SHRA BRBKN012BECMG 0919/0921 28008KTFM092200 28008KT P6SM FEW012 SCT030BECMG 1004/1006 08008KTFM100600 08006KT P6SM SCT012 BKN030FM100800 08008KT P6SM SCT030 BKN050 TEMPO 1008/1017 P6SM -SHRABKN030FM101700 09010KT P6SM -RA SCT012 BKN030RMK NXT FCST BY 091500Z

CYXX

METAR CYXX 091400Z 20004KT 12SM -SHRA FEW006 BKN011 BKN018 OVC026 03/02 A2985 RMK SF1SC5SC2SC1 SF TR CVCTV CLD EMBD SLP112=

SPECI CYXX 091342Z 16008KT 8SM -SHRA FEW008 SCT015 BKN023 OVC040 03/02 A2985 RMK SF1CU4SC3SC1 SF TR SLP112=

METAR CYXX 091300Z 17007KT 13SM -SHRA SCT016 BKN024 OVC040 03/02 A2986 RMK CU3CU2SC3 SLP114=

METAR CYXX 091200Z 17007KT 13SM -SHRA FEW017 BKN026 BKN031 OVC046 04/02 A2987 RMK SC2CU3SC2SC1 -SHRA VRY LGT SLP119=

TAF CYXX 091140Z 0912/1012 18008KT P6SM SCT012 BKN030 TEMPO0912/1003 4SM -SHRA BR BKN012BECMG 1001/1003 VRB03KTFM100300 VRB03KT P6SM BKN040 TEMPO 1003/1010 P6SM -SHRAFM101000 VRB03KT P6SM SCT012 BKN030 TEMPO 1010/1012 5SM -SHRA BRBKN012RMK NXT FCST BY 091800Z=

Supplemental information

Lower mainland ATIS: 1-877-517-2847

CZBB (Boundary Bay) current winds

Upper winds (Vancouver)

Data fromValid at300060009000
09000009060025082616-092821-16
09000009120021052817-092821-15
09000010000030193021-093122-15

NOTAMs

On October 10, 2019, NAV CANADA changed to the ICAO NOTAM format. They are now available only through Collaborative Flight Planning Services (CFPS) (plan.navcanada.ca). I'm working to update this site to pull in the relevant NOTAMs in the new format.